createdAt,value
2022-09-01T08:28:12.696Z,31.50
2022-09-01T08:30:49.057Z,30.50
2022-09-01T08:33:21.570Z,30.70
2022-09-01T08:35:50.801Z,30.00
2022-09-01T08:38:20.495Z,30.40
2022-09-01T08:40:57.225Z,29.90
2022-09-01T08:43:44.444Z,29.90
2022-09-01T08:46:17.785Z,30.10
2022-09-01T08:49:24.320Z,29.60
2022-09-01T08:52:03.431Z,28.50
2022-09-01T08:54:38.629Z,27.80
2022-09-01T08:57:12.029Z,26.70
2022-09-01T08:59:58.532Z,25.30
2022-09-01T09:02:46.500Z,24.00
2022-09-01T09:05:36.650Z,23.00
2022-09-01T09:08:29.616Z,21.70
2022-09-01T09:11:05.447Z,21.20
2022-09-01T09:13:44.365Z,21.50
2022-09-01T09:16:19.955Z,23.00
2022-09-01T09:18:55.983Z,25.40
2022-09-01T09:21:30.027Z,27.70
2022-09-01T09:24:04.903Z,28.40
2022-09-01T09:26:48.809Z,30.20
2022-09-01T09:29:18.687Z,31.30
2022-09-01T09:31:49.888Z,31.80
2022-09-01T09:34:33.290Z,32.40
2022-09-01T09:37:23.215Z,33.50
2022-09-01T09:40:15.222Z,33.10
2022-09-01T09:43:01.687Z,31.70
2022-09-01T09:45:34.580Z,31.00
2022-09-01T09:48:07.604Z,31.40
2022-09-01T09:50:41.142Z,30.80
2022-09-01T09:53:28.285Z,31.30
2022-09-01T09:56:00.692Z,30.20
2022-09-01T09:58:37.101Z,30.10
2022-09-01T10:01:15.314Z,30.10
2022-09-01T10:03:49.063Z,29.10
2022-09-01T10:06:34.519Z,30.10
2022-09-01T10:09:05.059Z,30.20
2022-09-01T10:11:41.252Z,29.90
2022-09-01T10:14:23.585Z,30.30
2022-09-01T10:17:11.325Z,29.30
2022-09-01T10:19:42.225Z,27.90
2022-09-01T10:22:11.239Z,25.20
2022-09-01T10:24:45.385Z,23.70
2022-09-01T10:27:19.968Z,22.80
2022-09-01T10:30:12.202Z,23.90
2022-09-01T10:32:50.718Z,23.70
2022-09-01T10:35:24.553Z,23.00
2022-09-01T10:37:53.644Z,22.50
2022-09-01T10:40:43.524Z,22.30
2022-09-01T10:43:41.581Z,22.00
2022-09-01T10:46:49.446Z,21.80
2022-09-01T10:49:58.804Z,21.80
2022-09-01T10:52:58.566Z,21.40
2022-09-01T10:55:32.578Z,21.50
2022-09-01T11:02:34.930Z,21.10
2022-09-01T11:05:19.825Z,21.00
2022-09-01T11:08:25.354Z,20.70
2022-09-01T11:10:47.702Z,20.50
2022-09-01T11:13:32.835Z,20.10
2022-09-01T11:16:48.130Z,20.00
2022-09-01T11:19:44.684Z,19.90
2022-09-01T11:22:22.246Z,19.80
2022-09-01T11:25:00.228Z,19.80
2022-09-01T11:27:58.339Z,19.90
2022-09-01T11:30:51.910Z,19.80
2022-09-01T11:33:42.070Z,19.70
2022-09-01T11:36:20.114Z,19.80
2022-09-01T11:38:52.619Z,19.90
2022-09-01T11:41:26.329Z,20.00
2022-09-01T11:44:01.071Z,19.90
2022-09-01T11:46:34.349Z,20.20
2022-09-01T11:49:08.091Z,20.30
2022-09-01T11:51:46.839Z,20.30
2022-09-01T11:54:16.637Z,20.60
2022-09-01T11:56:44.694Z,20.70
2022-09-01T11:59:14.002Z,20.60
2022-09-01T12:01:42.238Z,20.30
2022-09-01T12:04:23.335Z,20.40
2022-09-01T12:07:01.884Z,20.60
2022-09-01T12:09:36.088Z,20.50
2022-09-01T12:12:05.934Z,20.50
2022-09-01T12:15:02.126Z,20.60
2022-09-01T12:17:23.919Z,20.70
2022-09-01T12:19:51.983Z,20.60
2022-09-01T12:22:22.571Z,20.40
2022-09-01T12:24:52.485Z,20.50
2022-09-01T12:27:23.185Z,20.80
2022-09-01T12:29:53.344Z,20.80
2022-09-01T12:32:21.753Z,20.80
2022-09-01T12:35:05.594Z,20.80
2022-09-01T12:37:37.435Z,20.90
2022-09-01T12:40:07.615Z,21.10
2022-09-01T12:42:41.453Z,21.10
2022-09-01T12:45:14.717Z,21.00
2022-09-01T12:47:52.013Z,21.10
2022-09-01T12:50:43.648Z,21.30
2022-09-01T12:53:22.955Z,21.10
2022-09-01T12:56:20.151Z,21.30
2022-09-01T12:58:52.291Z,21.60
2022-09-01T13:01:31.101Z,21.20
2022-09-01T13:04:15.983Z,21.00
2022-09-01T13:06:44.391Z,20.70
2022-09-01T13:09:12.433Z,20.50
2022-09-01T13:14:31.763Z,19.90
2022-09-01T13:17:01.256Z,19.70
2022-09-01T13:19:30.466Z,19.60
2022-09-01T13:21:58.868Z,19.60
2022-09-01T13:24:30.406Z,19.70
2022-09-01T13:29:48.224Z,19.50
2022-09-01T13:32:21.701Z,19.30
2022-09-01T13:34:52.355Z,19.20
2022-09-01T13:37:21.805Z,19.20
2022-09-01T13:39:50.537Z,19.10
2022-09-01T13:42:19.372Z,18.90
2022-09-01T13:44:52.346Z,18.80
2022-09-01T13:47:29.885Z,18.70
2022-09-01T13:50:08.362Z,18.60
2022-09-01T13:52:37.915Z,18.60
2022-09-01T13:55:06.895Z,18.60
2022-09-01T13:57:36.006Z,19.00
2022-09-01T14:00:07.731Z,19.20
2022-09-01T14:02:40.096Z,19.20
2022-09-01T14:05:08.969Z,19.30
2022-09-01T14:07:37.183Z,19.30
2022-09-01T14:10:07.357Z,19.30
2022-09-01T14:12:35.565Z,19.30
2022-09-01T14:15:13.554Z,19.40
2022-09-01T14:17:46.234Z,19.40
2022-09-01T14:20:18.350Z,19.40
2022-09-01T14:22:46.953Z,19.40
2022-09-01T14:25:16.037Z,19.40
2022-09-01T14:27:44.753Z,19.50
2022-09-01T14:30:16.408Z,19.60
2022-09-01T14:32:46.038Z,19.60
2022-09-01T14:35:15.048Z,19.60
2022-09-01T14:37:45.664Z,19.80
2022-09-01T14:40:16.809Z,19.90
2022-09-01T14:42:49.431Z,19.90
2022-09-01T14:45:18.694Z,19.90
2022-09-01T14:47:48.810Z,19.90
2022-09-01T14:50:21.990Z,19.90
2022-09-01T14:52:53.933Z,19.80
2022-09-01T14:55:23.150Z,19.90
2022-09-01T14:57:51.450Z,19.90
2022-09-01T15:00:20.135Z,19.80
2022-09-01T15:02:50.208Z,19.70
2022-09-01T15:05:18.577Z,19.70
2022-09-01T15:07:47.201Z,19.70
2022-09-01T15:10:24.589Z,19.80
2022-09-01T15:12:54.391Z,19.90
2022-09-01T15:15:22.683Z,19.90
2022-09-01T15:17:52.086Z,19.90
2022-09-01T15:20:37.479Z,19.80
2022-09-01T15:23:05.796Z,19.70
2022-09-01T15:25:33.897Z,19.70
2022-09-01T15:28:01.969Z,19.70
2022-09-01T15:30:30.380Z,19.70
2022-09-01T15:33:00.389Z,19.80
2022-09-01T15:35:29.649Z,19.70
2022-09-01T15:37:58.135Z,19.70
2022-09-01T15:40:28.178Z,19.70
2022-09-01T15:42:58.777Z,19.80
2022-09-01T15:45:31.480Z,19.80
2022-09-01T15:48:01.049Z,19.70
2022-09-01T15:50:29.667Z,19.60
2022-09-01T15:53:01.608Z,19.70
2022-09-01T15:55:32.564Z,19.60
2022-09-01T15:58:00.779Z,19.40
2022-09-01T16:00:30.330Z,19.30
2022-09-01T16:03:01.808Z,19.30
2022-09-01T16:05:32.753Z,19.30
2022-09-01T16:08:01.892Z,19.30
2022-09-01T16:10:33.665Z,19.20
2022-09-01T16:13:04.910Z,19.00
2022-09-01T16:15:35.309Z,18.90
2022-09-01T16:18:18.254Z,18.80
2022-09-01T16:21:00.105Z,18.60
2022-09-01T16:23:35.173Z,18.50
2022-09-01T16:26:03.257Z,18.30
2022-09-01T16:28:35.828Z,18.30
2022-09-01T16:31:08.938Z,18.30
2022-09-01T16:36:25.530Z,18.10
2022-09-01T16:39:00.265Z,18.10
2022-09-01T16:41:43.971Z,18.00
2022-09-01T16:44:32.799Z,17.90
2022-09-01T16:47:09.977Z,17.90
2022-09-01T16:49:46.133Z,17.80
2022-09-01T16:52:21.736Z,17.80
2022-09-01T16:55:02.756Z,17.80
2022-09-01T16:57:41.408Z,17.70
2022-09-01T17:00:14.140Z,17.60
2022-09-01T17:02:52.756Z,17.40
2022-09-01T17:05:26.108Z,17.40
2022-09-01T17:08:07.804Z,17.20
2022-09-01T17:10:42.195Z,17.10
2022-09-01T17:13:20.469Z,17.00
2022-09-01T17:15:56.146Z,16.90
2022-09-01T17:18:33.753Z,16.80
2022-09-01T17:21:11.965Z,16.70
2022-09-01T17:23:51.309Z,16.60
2022-09-01T17:26:25.749Z,16.60
2022-09-01T17:28:56.506Z,16.50
2022-09-01T17:31:42.981Z,16.40
2022-09-01T17:34:23.983Z,16.20
2022-09-01T17:37:06.425Z,16.10
2022-09-01T17:39:45.493Z,16.00
2022-09-01T17:42:25.060Z,15.80
2022-09-01T17:44:58.687Z,15.80
2022-09-01T17:47:37.103Z,15.60
2022-09-01T17:50:14.178Z,15.50
2022-09-01T17:52:55.012Z,15.40
2022-09-01T17:55:42.141Z,15.20
2022-09-01T17:58:19.570Z,15.20
2022-09-01T18:00:54.664Z,15.10
2022-09-01T18:03:46.620Z,14.90
2022-09-01T18:06:28.208Z,14.80
2022-09-01T18:08:59.152Z,14.70
2022-09-01T18:11:36.619Z,14.60
2022-09-01T18:14:09.215Z,14.50
2022-09-01T18:16:44.395Z,14.30
2022-09-01T18:19:17.954Z,14.20
2022-09-01T18:21:53.008Z,14.10
2022-09-01T18:24:26.291Z,14.00
2022-09-01T18:26:55.662Z,13.90
2022-09-01T18:29:28.428Z,13.90
2022-09-01T18:32:18.152Z,13.80
2022-09-01T18:35:08.059Z,13.80
2022-09-01T18:37:47.257Z,13.70
2022-09-01T18:40:22.499Z,13.50
2022-09-01T18:43:01.643Z,13.50
2022-09-01T18:45:38.517Z,13.30
2022-09-01T18:48:18.139Z,13.20
2022-09-01T18:50:53.268Z,13.20
2022-09-01T18:53:30.575Z,13.00
2022-09-01T18:56:07.083Z,12.80
2022-09-01T18:58:48.838Z,12.70
2022-09-01T19:01:23.947Z,12.60
2022-09-01T19:03:59.027Z,12.40
2022-09-01T19:06:35.818Z,12.30
2022-09-01T19:09:16.936Z,12.30
2022-09-01T19:11:55.940Z,12.30
2022-09-01T19:14:32.623Z,12.20
2022-09-01T19:17:16.285Z,12.00
2022-09-01T19:19:49.184Z,11.90
2022-09-01T19:22:20.564Z,11.90
2022-09-01T19:24:51.906Z,11.80
2022-09-01T19:27:25.370Z,11.70
2022-09-01T19:29:58.811Z,11.60
2022-09-01T19:32:29.683Z,11.50
2022-09-01T19:34:59.918Z,11.40
2022-09-01T19:37:28.006Z,11.30
2022-09-01T19:39:56.541Z,11.20
2022-09-01T19:42:29.770Z,11.10
2022-09-01T19:45:07.497Z,11.00
2022-09-01T19:47:42.969Z,10.90
2022-09-01T19:50:17.705Z,10.80
2022-09-01T19:52:55.170Z,10.70
2022-09-01T19:55:31.502Z,10.50
2022-09-01T19:58:04.317Z,10.40
2022-09-01T20:00:41.947Z,10.30
2022-09-01T20:03:14.053Z,10.20
2022-09-01T20:05:46.624Z,10.10
2022-09-01T20:08:24.378Z,10.00
2022-09-01T20:10:58.862Z,9.90
2022-09-01T20:14:03.844Z,9.80
2022-09-01T20:16:38.486Z,9.80
2022-09-01T20:19:11.531Z,9.70
2022-09-01T20:21:44.187Z,9.60
2022-09-01T20:24:19.656Z,9.60
2022-09-01T20:27:00.152Z,9.60
2022-09-01T20:29:37.680Z,9.60
2022-09-01T20:32:08.014Z,9.60
2022-09-01T20:34:44.653Z,9.40
2022-09-01T20:37:19.191Z,9.40
2022-09-01T20:40:02.128Z,9.20
2022-09-01T20:42:35.827Z,9.20
2022-09-01T20:45:12.142Z,9.10
2022-09-01T20:47:42.925Z,9.00
2022-09-01T20:50:14.655Z,8.90
2022-09-01T20:52:56.933Z,8.90
2022-09-01T20:55:28.245Z,8.80
2022-09-01T20:58:02.648Z,8.80
2022-09-01T21:00:35.010Z,8.70
2022-09-01T21:03:18.262Z,8.70
2022-09-01T21:05:55.730Z,8.70
2022-09-01T21:08:38.751Z,8.60
2022-09-01T21:11:34.346Z,8.60
2022-09-01T21:14:13.960Z,8.50
2022-09-01T21:16:55.424Z,8.50
2022-09-01T21:19:34.933Z,8.50
2022-09-01T21:22:07.522Z,8.40
